createdAt,value
2019-03-08T00:02:27.375Z,99766.27
2019-03-08T00:04:57.756Z,99761.16
2019-03-08T00:07:31.330Z,99777.81
2019-03-08T00:10:05.639Z,99772.48
2019-03-08T00:12:35.722Z,99784.06
2019-03-08T00:15:08.218Z,99773.11
2019-03-08T00:17:40.208Z,99787.69
2019-03-08T00:20:16.868Z,99786.95
2019-03-08T00:22:47.558Z,99806.17
2019-03-08T00:25:20.332Z,99793.00
2019-03-08T00:27:52.045Z,99794.33
2019-03-08T00:30:29.321Z,99807.59
2019-03-08T00:32:56.598Z,99798.18
2019-03-08T00:35:28.972Z,99817.62
2019-03-08T00:38:01.271Z,99813.77
2019-03-08T00:40:39.732Z,99814.64
2019-03-08T00:43:10.180Z,99832.92
2019-03-08T00:45:42.802Z,99838.05
2019-03-08T00:48:13.440Z,99838.22
2019-03-08T00:50:45.437Z,99848.44
2019-03-08T00:53:16.036Z,99849.73
2019-03-08T00:55:47.648Z,99857.41
2019-03-08T00:58:21.150Z,99878.05
2019-03-08T01:00:54.669Z,99871.98
2019-03-08T01:03:28.038Z,99888.34
2019-03-08T01:06:01.712Z,99897.19
2019-03-08T01:08:38.594Z,99893.28
2019-03-08T01:11:27.105Z,99903.36
2019-03-08T01:13:59.256Z,99905.27
2019-03-08T01:16:30.939Z,99911.95
2019-03-08T01:19:03.250Z,99924.61
2019-03-08T01:21:33.940Z,99912.50
2019-03-08T01:24:04.292Z,99928.15
2019-03-08T01:26:37.754Z,99925.92
2019-03-08T01:29:08.170Z,99933.42
2019-03-08T01:31:44.818Z,99945.15
2019-03-08T01:34:15.185Z,99936.95
2019-03-08T01:36:48.336Z,99935.95
2019-03-08T01:39:18.878Z,99948.11
2019-03-08T01:41:57.243Z,99941.34
2019-03-08T01:44:27.901Z,99951.53
2019-03-08T01:47:01.529Z,99956.63
2019-03-08T01:49:32.046Z,99954.27
2019-03-08T01:52:09.291Z,99958.49
2019-03-08T01:54:39.864Z,99944.88
2019-03-08T01:57:11.666Z,99945.34
2019-03-08T01:59:42.170Z,99969.55
2019-03-08T02:02:21.365Z,99974.12
2019-03-08T02:04:48.778Z,99983.02
2019-03-08T02:07:26.618Z,99979.88
2019-03-08T02:09:56.938Z,99983.14
2019-03-08T02:12:32.057Z,99990.28
2019-03-08T02:15:01.154Z,99998.77
2019-03-08T02:17:34.724Z,100001.72
2019-03-08T02:20:05.772Z,100001.66
2019-03-08T02:22:56.746Z,100009.27
2019-03-08T02:25:27.103Z,100006.16
2019-03-08T02:28:04.836Z,100017.02
2019-03-08T02:30:32.445Z,100018.20
2019-03-08T02:33:07.039Z,100042.16
2019-03-08T02:35:37.378Z,100052.55
2019-03-08T02:38:09.557Z,100053.21
2019-03-08T02:40:40.418Z,100057.70
2019-03-08T02:43:17.958Z,100055.92
2019-03-08T02:45:45.647Z,100058.73
2019-03-08T02:48:17.310Z,100062.05
2019-03-08T02:50:48.867Z,100063.61
2019-03-08T02:53:19.423Z,100071.14
2019-03-08T02:55:49.891Z,100080.02
2019-03-08T02:58:20.453Z,100076.09
2019-03-08T03:00:52.461Z,100071.80
2019-03-08T03:03:26.780Z,100082.23
2019-03-08T03:05:57.998Z,100088.02
2019-03-08T03:08:38.766Z,100091.30
2019-03-08T03:11:09.992Z,100084.83
2019-03-08T03:13:43.218Z,100090.61
2019-03-08T03:16:15.754Z,100102.78
2019-03-08T03:18:47.833Z,100107.39
2019-03-08T03:21:18.248Z,100107.75
2019-03-08T03:23:50.246Z,100117.81
2019-03-08T03:26:21.018Z,100123.70
2019-03-08T03:28:52.646Z,100128.44
2019-03-08T03:31:23.034Z,100122.55
2019-03-08T03:33:57.278Z,100124.61
2019-03-08T03:36:30.980Z,100130.58
2019-03-08T03:39:02.425Z,100130.94
2019-03-08T03:41:39.519Z,100135.23
2019-03-08T03:44:14.112Z,100148.78
2019-03-08T03:46:46.442Z,100148.78
2019-03-08T03:49:29.664Z,100154.86
2019-03-08T03:52:00.036Z,100160.34
2019-03-08T03:55:08.800Z,100162.02
2019-03-08T03:57:08.747Z,100170.20
2019-03-08T03:59:42.301Z,100175.69
2019-03-08T04:02:14.581Z,100183.24
2019-03-08T04:04:46.798Z,100189.16
2019-03-08T04:07:19.036Z,100182.38
2019-03-08T04:09:51.521Z,100191.63
2019-03-08T04:12:21.910Z,100198.87
2019-03-08T04:14:53.994Z,100201.77
2019-03-08T04:17:26.319Z,100208.45
2019-03-08T04:20:00.551Z,100215.76
2019-03-08T04:22:31.064Z,100227.33
2019-03-08T04:25:06.620Z,100231.58
2019-03-08T04:27:37.121Z,100242.35
2019-03-08T04:30:12.738Z,100238.58
2019-03-08T04:32:43.266Z,100250.46
2019-03-08T04:35:15.261Z,100259.77
2019-03-08T04:37:47.331Z,100260.16
2019-03-08T04:40:21.898Z,100267.80
2019-03-08T04:42:53.616Z,100260.05
2019-03-08T04:45:25.489Z,100271.84
2019-03-08T04:47:55.962Z,100279.48
2019-03-08T04:50:33.491Z,100282.34
2019-03-08T04:53:03.866Z,100285.72
2019-03-08T04:55:35.019Z,100278.09
2019-03-08T04:58:07.732Z,100287.44
2019-03-08T05:01:10.114Z,100288.27
2019-03-08T05:03:35.666Z,100300.91
2019-03-08T05:06:14.780Z,100306.36
2019-03-08T05:08:48.632Z,100306.20
2019-03-08T05:11:20.389Z,100300.74
2019-03-08T05:13:52.663Z,100311.94
2019-03-08T05:16:27.921Z,100311.59
2019-03-08T05:18:58.277Z,100322.75
2019-03-08T05:21:33.631Z,100326.27
2019-03-08T05:24:06.033Z,100328.52
2019-03-08T05:26:41.005Z,100331.50
2019-03-08T05:29:13.298Z,100339.48
2019-03-08T05:31:47.847Z,100348.52
2019-03-08T05:34:18.604Z,100355.13
2019-03-08T05:36:49.085Z,100353.75
2019-03-08T05:39:19.502Z,100359.80
2019-03-08T05:41:55.866Z,100368.38
2019-03-08T05:44:26.430Z,100374.89
2019-03-08T05:47:03.130Z,100379.63
2019-03-08T05:49:33.796Z,100390.08
2019-03-08T05:52:29.815Z,100402.74
2019-03-08T05:54:41.219Z,100412.86
2019-03-08T05:57:13.555Z,100413.59
2019-03-08T05:59:45.480Z,100420.48
2019-03-08T06:02:22.532Z,100431.62
2019-03-08T06:04:52.889Z,100438.30
2019-03-08T06:07:47.099Z,100443.56
2019-03-08T06:10:35.201Z,100448.16
2019-03-08T06:13:06.650Z,100463.20
2019-03-08T06:16:32.562Z,100463.20
2019-03-08T06:18:17.036Z,100475.74
2019-03-08T06:24:27.903Z,100490.97
2019-03-08T06:27:05.806Z,100503.28
2019-03-08T06:29:53.873Z,100503.28
2019-03-08T06:32:11.528Z,100512.58
2019-03-08T06:34:44.939Z,100522.89
2019-03-08T06:37:17.292Z,100534.39
2019-03-08T06:39:54.516Z,100537.86
2019-03-08T06:42:23.343Z,100540.62
2019-03-08T06:45:14.112Z,100554.80
2019-03-08T06:51:01.411Z,100563.08
2019-03-08T06:53:42.207Z,100575.98
2019-03-08T06:56:28.106Z,100580.29
2019-03-08T06:59:04.292Z,100587.92
2019-03-08T07:02:22.593Z,100600.66
2019-03-08T07:04:24.562Z,100599.56
2019-03-08T07:06:57.729Z,100615.05
2019-03-08T07:09:29.738Z,100606.48
2019-03-08T07:12:25.248Z,100623.30
2019-03-08T07:15:13.490Z,100620.14
2019-03-08T07:17:45.370Z,100647.55
2019-03-08T07:23:41.477Z,100653.84
2019-03-08T07:26:30.494Z,100654.64
2019-03-08T07:29:41.293Z,100671.34
2019-03-08T07:32:33.593Z,100678.04
2019-03-08T07:35:40.059Z,100678.04
2019-03-08T07:38:29.840Z,100701.72
2019-03-08T07:41:14.399Z,100700.45
2019-03-08T07:44:03.780Z,100713.33
2019-03-08T07:46:53.081Z,100725.74
2019-03-08T07:50:00.703Z,100726.88
2019-03-08T07:52:47.987Z,100732.74
2019-03-08T07:55:39.557Z,100731.98
2019-03-08T07:58:27.794Z,100740.42
2019-03-08T08:01:10.495Z,100755.91
2019-03-08T08:03:59.760Z,100748.56
2019-03-08T08:06:54.982Z,100746.91
2019-03-08T08:10:01.557Z,100740.45
2019-03-08T08:13:07.476Z,100755.02
2019-03-08T08:16:15.488Z,100767.16
2019-03-08T08:18:59.519Z,100773.59
2019-03-08T08:21:47.816Z,100771.69
2019-03-08T08:24:29.114Z,100779.06
2019-03-08T08:27:13.191Z,100773.44
2019-03-08T08:30:07.897Z,100779.59
2019-03-08T08:32:51.446Z,100785.75
2019-03-08T08:35:43.326Z,100799.48
2019-03-08T08:38:44.707Z,100815.50
2019-03-08T08:41:28.109Z,100814.91
2019-03-08T08:44:24.827Z,100823.91
2019-03-08T08:47:11.767Z,100823.91
2019-03-08T08:50:01.490Z,100835.05
2019-03-08T08:53:00.342Z,100833.42
2019-03-08T08:55:43.643Z,100839.75
2019-03-08T08:58:24.664Z,100849.28
2019-03-08T09:01:33.130Z,100840.09
2019-03-08T09:04:34.153Z,100845.39
2019-03-08T09:07:25.312Z,100847.68
2019-03-08T09:10:13.022Z,100864.48
2019-03-08T09:12:57.839Z,100845.23
2019-03-08T09:15:56.118Z,100878.34
2019-03-08T09:19:02.088Z,100878.34
2019-03-08T09:21:43.916Z,100878.48
2019-03-08T09:24:25.502Z,100879.10
2019-03-08T09:27:08.975Z,100885.36
2019-03-08T09:30:01.825Z,100899.58
2019-03-08T09:32:58.708Z,100897.16
2019-03-08T09:35:38.484Z,100904.48
2019-03-08T09:38:29.502Z,100914.37
2019-03-08T09:41:18.835Z,100914.58
2019-03-08T09:44:08.671Z,100899.41
2019-03-08T09:47:19.186Z,100884.64
2019-03-08T09:50:10.524Z,100888.13
2019-03-08T09:53:01.167Z,100876.58
2019-03-08T09:55:52.839Z,100896.91
2019-03-08T09:58:51.507Z,100911.25
2019-03-08T10:01:45.415Z,100926.42
2019-03-08T10:04:34.826Z,100908.58
2019-03-08T10:07:19.962Z,100914.31
2019-03-08T10:10:20.006Z,100933.13
2019-03-08T10:13:09.837Z,100941.52
2019-03-08T10:15:52.427Z,100942.36
2019-03-08T10:18:45.106Z,100955.91
2019-03-08T10:21:25.643Z,100955.91
2019-03-08T10:24:21.168Z,100972.53
2019-03-08T10:27:15.296Z,100982.53
2019-03-08T10:30:05.391Z,101014.21
2019-03-08T10:32:53.078Z,101014.21
2019-03-08T10:35:53.089Z,101040.72
2019-03-08T10:39:00.427Z,101037.83
2019-03-08T10:42:03.002Z,101047.42
2019-03-08T10:44:49.921Z,101056.02
2019-03-08T10:47:39.666Z,101056.02
2019-03-08T10:50:46.051Z,101070.91
2019-03-08T10:53:22.087Z,101067.63
2019-03-08T10:56:14.736Z,101071.13
2019-03-08T10:58:56.327Z,101081.68
2019-03-08T11:01:47.213Z,101071.08
2019-03-08T11:04:28.227Z,101073.48
2019-03-08T11:07:11.976Z,101070.69
2019-03-08T11:09:59.909Z,101075.75
2019-03-08T11:12:38.940Z,101078.37
2019-03-08T11:15:38.496Z,101079.66
2019-03-08T11:18:28.125Z,101076.69
2019-03-08T11:21:25.361Z,101080.73
2019-03-08T11:24:26.574Z,101078.72
2019-03-08T11:27:17.373Z,101087.52
2019-03-08T11:30:04.067Z,101092.48
2019-03-08T11:32:52.380Z,101090.56
2019-03-08T11:35:42.184Z,101085.28
2019-03-08T11:38:33.241Z,101083.33
2019-03-08T11:41:12.445Z,101087.09
2019-03-08T11:44:00.316Z,101093.05
2019-03-08T11:46:45.659Z,101100.02
2019-03-08T11:49:46.438Z,101102.90
2019-03-08T11:52:34.568Z,101111.16
2019-03-08T11:55:35.102Z,101110.03
2019-03-08T11:58:29.625Z,101115.24
2019-03-08T12:01:21.753Z,101112.42
2019-03-08T12:04:05.035Z,101104.34
2019-03-08T12:07:12.835Z,101102.59
2019-03-08T12:09:53.643Z,101103.06
2019-03-08T12:12:52.173Z,101096.92
2019-03-08T12:15:46.619Z,101090.59
2019-03-08T12:18:36.881Z,101091.47
2019-03-08T12:21:27.156Z,101080.83
2019-03-08T12:24:11.000Z,101091.50
2019-03-08T12:27:17.838Z,101080.39
2019-03-08T12:30:06.756Z,101086.25
2019-03-08T12:33:12.532Z,101086.25
2019-03-08T12:35:57.331Z,101093.53
2019-03-08T12:38:54.644Z,101093.33
2019-03-08T12:42:04.646Z,101102.00
2019-03-08T12:44:43.381Z,101100.11
2019-03-08T12:47:33.537Z,101104.92
2019-03-08T12:50:17.802Z,101103.55
2019-03-08T12:53:07.355Z,101098.97
2019-03-08T12:55:52.084Z,101108.98
2019-03-08T12:58:31.900Z,101110.94
2019-03-08T13:01:30.504Z,101115.74
2019-03-08T13:04:26.173Z,101107.41
2019-03-08T13:07:19.414Z,101101.48
2019-03-08T13:09:51.715Z,101099.48
2019-03-08T13:12:24.548Z,101093.25
2019-03-08T13:14:57.452Z,101097.44
2019-03-08T13:17:35.473Z,101095.52
2019-03-08T13:20:10.903Z,101093.23
2019-03-08T13:22:45.470Z,101109.18
2019-03-08T13:25:17.450Z,101104.89
2019-03-08T13:27:53.134Z,101107.63
2019-03-08T13:30:24.071Z,101106.55
2019-03-08T13:32:54.444Z,101108.34
2019-03-08T13:35:26.661Z,101107.00
2019-03-08T13:37:57.424Z,101108.51
2019-03-08T13:40:29.427Z,101109.95
2019-03-08T13:43:17.930Z,101117.18
2019-03-08T13:45:33.870Z,101112.11
2019-03-08T13:48:08.458Z,101109.25
2019-03-08T13:50:38.875Z,101107.75
2019-03-08T13:53:10.998Z,101117.09
2019-03-08T13:55:41.407Z,101111.58
2019-03-08T13:58:14.490Z,101109.07
2019-03-08T14:00:45.135Z,101101.02
2019-03-08T14:03:21.053Z,101099.51
2019-03-08T14:05:51.743Z,101088.66
2019-03-08T14:08:29.029Z,101106.70
2019-03-08T14:10:59.315Z,101099.23
2019-03-08T14:13:29.845Z,101103.42
2019-03-08T14:16:01.498Z,101101.80
2019-03-08T14:18:31.934Z,101098.72
2019-03-08T14:21:02.334Z,101108.95
2019-03-08T14:23:42.768Z,101107.70
2019-03-08T14:26:13.446Z,101113.84
2019-03-08T14:28:45.575Z,101108.69
2019-03-08T14:31:34.624Z,101111.26
2019-03-08T14:34:10.697Z,101115.98
2019-03-08T14:36:43.181Z,101108.79
2019-03-08T14:39:16.242Z,101106.53
2019-03-08T14:41:59.113Z,101111.58
2019-03-08T14:44:56.940Z,101113.88
2019-03-08T14:47:33.455Z,101113.88
2019-03-08T14:50:03.184Z,101114.52
2019-03-08T14:52:37.766Z,101112.33
2019-03-08T14:55:10.516Z,101118.84
2019-03-08T14:57:42.484Z,101108.98
2019-03-08T15:00:18.143Z,101114.98
2019-03-08T15:02:54.439Z,101114.73
2019-03-08T15:05:25.881Z,101119.88
2019-03-08T15:08:01.815Z,101116.37
2019-03-08T15:10:39.664Z,101115.98
2019-03-08T15:13:09.615Z,101115.98
2019-03-08T15:15:41.502Z,101121.13
2019-03-08T15:18:16.222Z,101114.73
2019-03-08T15:20:47.316Z,101111.74
2019-03-08T15:23:22.625Z,101124.86
2019-03-08T15:25:57.843Z,101119.25
2019-03-08T15:28:39.348Z,101122.22
2019-03-08T15:31:12.617Z,101126.17
2019-03-08T15:33:47.812Z,101131.30
2019-03-08T15:36:17.374Z,101127.47
2019-03-08T15:38:47.749Z,101127.47
2019-03-08T15:41:21.474Z,101137.03
2019-03-08T15:43:51.162Z,101135.91
2019-03-08T15:46:23.458Z,101136.53
2019-03-08T15:48:55.402Z,101128.16
2019-03-08T15:51:27.660Z,101126.65
2019-03-08T15:54:04.514Z,101128.55
2019-03-08T15:56:35.269Z,101130.89
2019-03-08T15:59:10.114Z,101123.45
2019-03-08T16:01:42.488Z,101116.44
2019-03-08T16:04:19.089Z,101126.20
2019-03-08T16:06:49.933Z,101118.33
2019-03-08T16:09:30.325Z,101124.55
2019-03-08T16:11:59.801Z,101126.95
2019-03-08T16:14:30.196Z,101120.55
2019-03-08T16:17:02.677Z,101119.71
2019-03-08T16:19:35.526Z,101123.66
2019-03-08T16:22:08.773Z,101113.49
2019-03-08T16:24:48.136Z,101110.97
2019-03-08T16:27:18.539Z,101102.38
2019-03-08T16:29:55.353Z,101100.61
2019-03-08T16:32:41.831Z,101096.73
2019-03-08T16:35:13.552Z,101093.25
2019-03-08T16:38:06.893Z,101091.67
2019-03-08T16:41:00.044Z,101091.92
2019-03-08T16:43:53.497Z,101084.49
2019-03-08T16:46:33.271Z,101077.98
2019-03-08T16:49:32.295Z,101075.34
2019-03-08T16:52:36.230Z,101063.42
2019-03-08T16:55:32.367Z,101069.38
2019-03-08T16:58:26.908Z,101069.47
2019-03-08T17:01:20.581Z,101067.16
2019-03-08T17:04:12.696Z,101072.52
2019-03-08T17:06:57.916Z,101076.53
2019-03-08T17:09:57.902Z,101077.41
2019-03-08T17:12:47.258Z,101086.01
2019-03-08T17:15:42.267Z,101089.28
2019-03-08T17:18:34.652Z,101092.56
2019-03-08T17:21:35.518Z,101102.75
2019-03-08T17:24:31.967Z,101105.78
2019-03-08T17:27:21.792Z,101101.36
2019-03-08T17:30:19.531Z,101097.36
2019-03-08T17:33:11.163Z,101103.00
2019-03-08T17:36:06.505Z,101105.80
2019-03-08T17:38:56.753Z,101101.87
2019-03-08T17:42:08.601Z,101102.76
2019-03-08T17:44:39.353Z,101095.20
2019-03-08T17:47:41.770Z,101098.76
2019-03-08T17:50:31.329Z,101092.64
2019-03-08T17:53:29.868Z,101094.28
2019-03-08T17:56:16.044Z,101098.48
2019-03-08T17:59:17.438Z,101095.56
2019-03-08T18:02:09.877Z,101101.08
2019-03-08T18:04:52.633Z,101095.44
2019-03-08T18:07:44.605Z,101097.28
2019-03-08T18:10:33.867Z,101104.50
2019-03-08T18:13:29.375Z,101112.97
2019-03-08T18:16:23.491Z,101107.59
2019-03-08T18:19:14.005Z,101104.44
2019-03-08T18:21:55.998Z,101105.15
2019-03-08T18:25:02.827Z,101107.09
2019-03-08T18:27:49.768Z,101100.58
2019-03-08T18:30:37.947Z,101103.14
2019-03-08T18:33:25.239Z,101102.21
2019-03-08T18:36:24.254Z,101106.97
2019-03-08T18:39:11.570Z,101107.33
2019-03-08T18:42:00.332Z,101098.84
2019-03-08T18:44:41.790Z,101098.84
2019-03-08T18:47:25.592Z,101091.32
2019-03-08T18:50:25.598Z,101093.09
2019-03-08T18:53:07.980Z,101098.50
2019-03-08T18:56:00.105Z,101089.03
2019-03-08T18:58:41.042Z,101085.91
2019-03-08T19:01:45.834Z,101089.08
2019-03-08T19:04:51.929Z,101086.69
2019-03-08T19:07:44.477Z,101097.67
2019-03-08T19:10:29.629Z,101105.01
2019-03-08T19:13:29.170Z,101098.89
2019-03-08T19:16:12.123Z,101096.87
2019-03-08T19:19:03.970Z,101099.24
2019-03-08T19:21:42.850Z,101100.30
2019-03-08T19:24:34.707Z,101103.30
2019-03-08T19:27:15.953Z,101097.36
2019-03-08T19:30:05.613Z,101088.37
2019-03-08T19:32:58.166Z,101089.25
2019-03-08T19:35:49.902Z,101084.72
2019-03-08T19:38:42.468Z,101091.98
2019-03-08T19:41:30.467Z,101084.32
2019-03-08T19:44:50.810Z,101085.33
2019-03-08T19:47:26.170Z,101079.39
2019-03-08T19:50:07.096Z,101070.13
2019-03-08T19:52:59.105Z,101079.74
2019-03-08T19:55:52.056Z,101068.25
2019-03-08T19:58:50.157Z,101075.20
2019-03-08T20:01:44.711Z,101068.65
2019-03-08T20:04:39.941Z,101056.30
2019-03-08T20:07:42.524Z,101056.48
2019-03-08T20:10:32.222Z,101049.92
2019-03-08T20:13:31.146Z,101045.88
2019-03-08T20:16:20.995Z,101045.88
2019-03-08T20:19:15.569Z,101049.44
2019-03-08T20:22:03.858Z,101047.27
2019-03-08T20:24:59.166Z,101036.70
2019-03-08T20:27:49.738Z,101036.17
2019-03-08T20:30:38.435Z,101025.84
2019-03-08T20:33:16.827Z,101039.15
2019-03-08T20:36:05.220Z,101035.98
2019-03-08T20:38:54.774Z,101032.77
2019-03-08T20:41:47.741Z,101036.52
2019-03-08T20:44:27.382Z,101037.13
2019-03-08T20:47:05.126Z,101030.20
2019-03-08T20:49:42.667Z,101019.19
2019-03-08T20:52:10.016Z,101017.28
2019-03-08T20:54:53.733Z,101021.38
2019-03-08T20:57:26.531Z,101016.94
2019-03-08T20:59:57.767Z,100999.93
2019-03-08T21:02:30.469Z,100990.67
2019-03-08T21:05:02.959Z,100990.59
2019-03-08T21:07:35.496Z,100991.95
2019-03-08T21:10:06.779Z,100985.96
2019-03-08T21:12:41.620Z,100977.56
2019-03-08T21:15:25.480Z,100976.56
2019-03-08T21:17:55.915Z,100978.14
2019-03-08T21:20:28.464Z,100982.97
2019-03-08T21:23:11.156Z,100980.06
2019-03-08T21:25:38.176Z,100975.11
2019-03-08T21:28:13.288Z,100972.20
2019-03-08T21:30:43.736Z,100972.02
2019-03-08T21:33:14.367Z,100968.40
2019-03-08T21:35:47.060Z,100965.67
2019-03-08T21:38:32.686Z,100964.55
2019-03-08T21:41:01.765Z,100969.61
2019-03-08T21:43:39.323Z,100942.25
2019-03-08T21:46:09.722Z,100942.25
2019-03-08T21:48:47.810Z,100928.41
2019-03-08T21:51:18.425Z,100933.21
2019-03-08T21:53:48.882Z,100925.55
2019-03-08T21:56:19.211Z,100921.37
2019-03-08T21:58:53.545Z,100914.87
2019-03-08T22:01:24.288Z,100912.32
2019-03-08T22:04:14.912Z,100903.38
2019-03-08T22:06:44.078Z,100904.21
2019-03-08T22:09:48.717Z,100902.30
2019-03-08T22:12:19.098Z,100893.12
2019-03-08T22:15:01.461Z,100901.71
2019-03-08T22:17:33.101Z,100898.75
2019-03-08T22:20:11.527Z,100895.72
2019-03-08T22:22:46.278Z,100893.28
2019-03-08T22:25:17.639Z,100894.38
2019-03-08T22:27:52.478Z,100894.13
2019-03-08T22:30:26.444Z,100892.41
2019-03-08T22:32:58.748Z,100892.41
2019-03-08T22:35:31.060Z,100879.22
2019-03-08T22:38:04.651Z,100882.92
2019-03-08T22:40:38.446Z,100864.22
2019-03-08T22:43:12.785Z,100862.02
2019-03-08T22:45:50.768Z,100859.88
2019-03-08T22:48:29.490Z,100856.66
2019-03-08T22:51:00.391Z,100856.66
2019-03-08T22:53:38.681Z,100854.37
2019-03-08T22:56:09.085Z,100840.94
2019-03-08T22:58:44.935Z,100856.38
2019-03-08T23:01:19.293Z,100837.41
2019-03-08T23:03:54.611Z,100833.58
2019-03-08T23:06:26.319Z,100824.92
2019-03-08T23:09:06.045Z,100824.80
2019-03-08T23:11:37.465Z,100824.75
2019-03-08T23:14:10.154Z,100823.57
2019-03-08T23:16:40.533Z,100823.84
2019-03-08T23:19:13.603Z,100811.36
2019-03-08T23:21:44.288Z,100804.33
2019-03-08T23:25:09.976Z,100796.76
2019-03-08T23:27:01.156Z,100779.73
2019-03-08T23:29:35.749Z,100772.31
2019-03-08T23:32:12.773Z,100764.09
2019-03-08T23:34:46.067Z,100764.09
2019-03-08T23:37:18.292Z,100760.19
2019-03-08T23:39:50.027Z,100761.67
2019-03-08T23:42:20.812Z,100748.05
2019-03-08T23:44:54.983Z,100746.55
2019-03-08T23:47:25.857Z,100744.99
2019-03-08T23:50:03.492Z,100731.76
2019-03-08T23:52:35.451Z,100728.16
2019-03-08T23:55:06.349Z,100716.52
2019-03-08T23:57:36.997Z,100705.44
